Pagina principale
METAR-TAF:

METAR-TAF

Aeroporti :

Aeroporto di Recife-Guararapes-Gilberto Freyre

Recife, Pernambuco, Brasile

latitudine: 08-08S, longitudine: 034-55W, altezza: 19 m

Osservazione

Il bollettino è stato emesso 1 ora e 4 minuti fa, alle 20:00 UTC
Vento 12 kt da sud/sud-est
Temperature 27°C
Umidità 74%
Pressione 1014 hPa
Visibilità 10 km o più
Poco nuvoloso ad un'altezza di 2300 ft

METAR: SBRF 242000Z 16012KT 9999 FEW023 27/22 Q1014

Ora: 18:04 (21:04 UTC)

Previsione

Il bollettino è stato emesso 5 ore e 4 minuti fa, alle 16:00 UTC
Previsione valida dal 24 alle 18 UTC al 25 alle 18 UTC
Vento 12 kt da sud/sud-est
Visibilità 10 km o più
Nubi sparse ad un'altezza di 2300 ft
Evoluzione graduale
dal 24 alle 23 UTC al 24 alle 24 UTC
Vento 6 kt da sud/sud-ovest
Evoluzione graduale
dal 25 alle 11 UTC al 25 alle 12 UTC
Vento 12 kt da sud/sud-est

TAF: SBRF 241600Z 2418/2518 15012KT 9999 SCT023 TN24/2507Z TX30/2515Z BECMG 2423/2424 20006KT BECMG 2511/2512 15012KT RMK PCN

Osservazioni e previsioni meteorologiche di più di 4000 aeroporti (messaggi METAR e TAF).

Le stazioni disponibili sono rappresentate dai dischi gialli e rossi sulla carta.

Puntare il mouse per vedere il nome della stazione.

Clicca sopra per visualizzare le osservazioni e previsioni meteorologiche.

Per cambiare la mappa : fare clic sui pulsanti verdi con una croce nera per ingrandire, il pulsante verde con un trattino per diminuire, o sulla freccia verde per le mappe adiacenti.


METAR-TAF: